Página principal
METAR-TAF:

METAR-TAF

Aeroportos :

Aeroporto Internacional do Cairo

Cairo, Egipto

latitude: 30-08N, longitude: 031-24E, altura: 64 m

Observação actual do tempo

O boletim foi feito há 13 minutos, às 12:00 UTC
Vento 5 kt de nor-nordeste
Temperatura 26°C
Humidade 42%
Pressão 1016 hPa
Visibilidade 10 km ou mais
Nuvens dispersasa uma altura de 2500 ft

METAR: HECA 181200Z 03005KT 9999 SCT025 26/12 Q1016 NOSIG

Hora: 14:13 (12:13 UTC)

Previsão

O boletim foi feito há 1 hora e 13 minutos, às 11:00 UTC
Previsão válida de 18 às 12 UTC a 19 às 18 UTC
Vento 8 kt de nordeste
Visibilidade 10 km ou mais
Poucas nuvensa uma altura de 2500 ft
Temporariamente
de 19 às 00 UTC a 19 às 06 UTC
Vento 3 kt com direcção variável
Visibilidade: 4000 m
bruma

TAF: HECA 181100Z 1812/1918 05008KT 9999 FEW025 TEMPO 1900/1906 VRB03KT 4000 HZ NSC

Observações e previsões do tempo de mais de 4000 aeroportos (mensagens METAR e TAF).

As estações disponíveis são os pontos amarelos e vermelhos sobre o mapa.

Mova o rato sobre o mapa para ver o nome da estação.

Depois clique no ponto para visualizar as observações e previsões meteorológicas.

Para alterar o mapa : clique nos botões verdes com uma cruz preta para aumentar o zoom; no botão verde com uma pitada de zoom; ou nas setas verdes para mapas adjacentes.


METAR-TAF: